createdAt,value
2022-08-26T00:04:19.956Z,49.12
2022-08-26T00:09:25.356Z,50.18
2022-08-26T00:14:30.873Z,50.32
2022-08-26T00:19:34.089Z,50.55
2022-08-26T00:24:38.325Z,50.94
2022-08-26T00:29:41.557Z,49.98
2022-08-26T00:34:44.446Z,49.45
2022-08-26T00:39:48.901Z,50.07
2022-08-26T00:44:51.922Z,50.26
2022-08-26T00:49:56.281Z,50.90
2022-08-26T00:55:03.840Z,50.63
2022-08-26T01:00:11.395Z,50.81
2022-08-26T01:05:14.229Z,51.20
2022-08-26T01:10:23.135Z,51.15
2022-08-26T01:15:32.943Z,51.29
2022-08-26T01:20:42.675Z,50.94
2022-08-26T01:25:51.773Z,51.24
2022-08-26T01:30:56.517Z,50.71
2022-08-26T01:36:00.077Z,51.27
2022-08-26T01:41:12.471Z,51.09
2022-08-26T01:46:24.050Z,51.27
2022-08-26T01:51:28.488Z,51.21
2022-08-26T01:56:33.423Z,51.30
2022-08-26T02:01:39.701Z,52.00
2022-08-26T02:06:43.410Z,52.11
2022-08-26T02:11:48.626Z,52.90
2022-08-26T02:16:55.366Z,52.29
2022-08-26T02:22:00.509Z,52.10
2022-08-26T02:27:06.436Z,53.64
2022-08-26T02:32:10.740Z,53.65
2022-08-26T02:37:14.551Z,54.08
2022-08-26T02:42:21.965Z,54.48
2022-08-26T02:47:25.519Z,54.21
2022-08-26T02:52:31.956Z,54.72
2022-08-26T02:57:36.564Z,54.06
2022-08-26T03:02:40.652Z,53.93
2022-08-26T03:07:43.472Z,54.69
2022-08-26T03:12:49.719Z,53.71
2022-08-26T03:17:56.286Z,54.67
2022-08-26T03:23:00.232Z,54.47
2022-08-26T03:28:04.702Z,55.42
2022-08-26T03:33:08.399Z,54.75
2022-08-26T03:38:12.277Z,55.29
2022-08-26T03:43:17.679Z,55.69
2022-08-26T03:48:20.974Z,55.76
2022-08-26T03:53:24.171Z,54.99
2022-08-26T03:58:28.347Z,55.51
2022-08-26T04:03:49.348Z,55.39
2022-08-26T04:08:52.133Z,55.74
2022-08-26T04:13:57.094Z,55.09
2022-08-26T04:19:03.244Z,56.36
2022-08-26T04:24:09.219Z,56.25
2022-08-26T04:29:18.283Z,56.72
2022-08-26T04:34:21.070Z,57.15
2022-08-26T04:39:25.486Z,57.93
2022-08-26T04:44:32.137Z,57.34
2022-08-26T04:49:35.758Z,57.45
2022-08-26T04:54:38.755Z,57.34
2022-08-26T04:59:46.136Z,57.68
2022-08-26T05:04:52.402Z,57.48
2022-08-26T05:09:55.291Z,58.38
2022-08-26T05:14:59.900Z,57.70
2022-08-26T05:20:02.778Z,57.54
2022-08-26T05:25:07.594Z,57.10
2022-08-26T05:30:12.896Z,56.93
2022-08-26T05:35:15.769Z,57.61
2022-08-26T05:40:18.957Z,56.39
2022-08-26T05:45:26.435Z,56.37
2022-08-26T05:50:29.250Z,56.23
2022-08-26T05:55:33.213Z,56.76
2022-08-26T06:00:38.424Z,57.03
2022-08-26T06:05:42.701Z,56.95
2022-08-26T06:10:49.273Z,57.54
2022-08-26T06:15:56.567Z,57.55
2022-08-26T06:21:00.375Z,59.16
2022-08-26T06:26:04.259Z,59.84
2022-08-26T06:31:08.849Z,61.35
2022-08-26T06:36:18.619Z,62.13
2022-08-26T06:41:22.830Z,62.50
2022-08-26T06:46:27.297Z,63.71
2022-08-26T06:51:32.148Z,64.92
2022-08-26T06:56:39.296Z,66.33
2022-08-26T07:01:45.654Z,66.38
2022-08-26T07:06:52.439Z,67.16
2022-08-26T07:11:56.496Z,66.75
2022-08-26T07:17:01.349Z,67.50
2022-08-26T07:22:06.449Z,66.73
2022-08-26T07:27:13.817Z,66.76
2022-08-26T07:32:22.954Z,65.84
2022-08-26T07:37:26.046Z,65.90
2022-08-26T07:42:28.953Z,66.15
2022-08-26T07:47:33.174Z,66.05
2022-08-26T07:52:37.585Z,66.14
2022-08-26T07:57:41.344Z,65.72
2022-08-26T08:02:46.957Z,65.49
2022-08-26T08:07:53.519Z,65.10
2022-08-26T08:13:05.329Z,65.80
2022-08-26T08:18:15.453Z,65.86
2022-08-26T08:23:18.746Z,65.06
2022-08-26T08:28:21.529Z,64.63
2022-08-26T08:33:26.109Z,64.11
2022-08-26T08:38:29.368Z,63.96
2022-08-26T08:43:39.735Z,63.64
2022-08-26T08:48:47.804Z,62.09
2022-08-26T08:53:54.807Z,61.74
2022-08-26T08:59:05.597Z,60.95
2022-08-26T09:04:31.620Z,60.28
2022-08-26T09:09:37.917Z,59.18
2022-08-26T09:14:41.292Z,58.45
2022-08-26T09:19:51.040Z,58.79
2022-08-26T09:24:53.834Z,58.24
2022-08-26T09:30:00.571Z,58.22
2022-08-26T09:35:08.594Z,57.21
2022-08-26T09:40:19.041Z,56.93
2022-08-26T09:45:29.179Z,56.80
2022-08-26T09:50:37.471Z,56.08
2022-08-26T09:55:43.176Z,56.43
2022-08-26T10:00:56.820Z,55.90
2022-08-26T10:06:03.347Z,54.69
2022-08-26T10:11:13.074Z,54.27
2022-08-26T10:16:20.424Z,54.52
2022-08-26T10:21:28.073Z,54.26
2022-08-26T10:26:39.798Z,53.88
2022-08-26T10:31:48.170Z,54.46
2022-08-26T10:37:10.821Z,54.97
2022-08-26T10:42:23.173Z,54.51
2022-08-26T10:47:32.518Z,54.65
2022-08-26T10:52:49.006Z,53.50
2022-08-26T10:57:58.733Z,53.30
2022-08-26T11:03:21.654Z,52.75
2022-08-26T11:08:32.358Z,52.30
2022-08-26T11:14:01.393Z,51.17
2022-08-26T11:19:04.951Z,50.03
2022-08-26T11:24:09.109Z,49.27
2022-08-26T11:29:13.942Z,48.08
2022-08-26T11:34:16.840Z,47.04
2022-08-26T11:39:25.612Z,45.98
2022-08-26T11:44:38.090Z,45.65
2022-08-26T11:49:41.745Z,45.41
2022-08-26T11:54:59.291Z,45.84
2022-08-26T12:00:07.276Z,44.42
2022-08-26T12:05:13.754Z,43.79
2022-08-26T12:10:29.775Z,43.41
2022-08-26T12:15:35.666Z,43.23
2022-08-26T12:20:47.994Z,42.21
2022-08-26T12:25:51.773Z,41.82
2022-08-26T12:31:05.443Z,42.06
2022-08-26T12:36:08.358Z,41.67
2022-08-26T12:41:11.765Z,41.70
2022-08-26T12:46:18.949Z,42.75
2022-08-26T12:51:26.183Z,42.59
2022-08-26T12:56:35.065Z,41.51
2022-08-26T13:01:44.082Z,42.06
2022-08-26T13:06:46.955Z,43.37
2022-08-26T13:12:00.290Z,42.11
2022-08-26T13:17:06.584Z,41.98
2022-08-26T13:22:13.417Z,40.59
2022-08-26T13:27:17.864Z,40.77
2022-08-26T13:32:22.601Z,40.29
2022-08-26T13:37:34.940Z,39.54
2022-08-26T13:42:38.495Z,39.36
2022-08-26T13:47:53.969Z,38.57
2022-08-26T13:52:56.777Z,37.92
2022-08-26T13:57:59.614Z,37.92
2022-08-26T14:03:04.571Z,38.81
2022-08-26T14:08:07.843Z,39.13
2022-08-26T14:13:10.761Z,37.43
2022-08-26T14:18:17.379Z,37.09
2022-08-26T14:23:20.212Z,36.61
2022-08-26T14:28:23.182Z,36.29
2022-08-26T14:33:32.450Z,35.88
2022-08-26T14:38:35.267Z,34.35
2022-08-26T14:43:40.597Z,34.28
2022-08-26T14:48:44.998Z,33.93
2022-08-26T14:54:05.476Z,34.12
2022-08-26T14:59:08.298Z,33.41
2022-08-26T15:04:12.640Z,32.75
2022-08-26T15:09:16.031Z,31.99
2022-08-26T15:14:20.087Z,31.30
2022-08-26T15:19:27.812Z,32.13
2022-08-26T15:24:30.592Z,30.94
2022-08-26T15:29:33.416Z,30.32
2022-08-26T15:34:40.612Z,30.15
2022-08-26T15:39:44.131Z,30.22
2022-08-26T15:44:46.933Z,31.07
2022-08-26T15:49:51.166Z,31.52
2022-08-26T15:54:54.053Z,30.89
2022-08-26T15:59:56.992Z,30.33
2022-08-26T16:05:01.359Z,30.23
2022-08-26T16:10:09.842Z,30.60
2022-08-26T16:15:13.318Z,31.17
2022-08-26T16:20:21.369Z,30.63
2022-08-26T16:25:27.267Z,29.97
2022-08-26T16:30:32.128Z,29.84
2022-08-26T16:35:36.658Z,29.78
2022-08-26T16:40:39.536Z,30.83
2022-08-26T16:45:42.411Z,31.15
2022-08-26T16:50:46.693Z,32.91
2022-08-26T16:55:50.089Z,34.61
2022-08-26T17:00:52.847Z,36.19
2022-08-26T17:05:57.068Z,37.47
2022-08-26T17:11:00.369Z,38.55
2022-08-26T17:16:04.764Z,38.81
2022-08-26T17:21:11.761Z,38.78
2022-08-26T17:26:14.693Z,39.13
2022-08-26T17:31:17.930Z,39.28
2022-08-26T17:36:22.980Z,40.08
2022-08-26T17:41:31.169Z,40.24
2022-08-26T17:46:38.218Z,40.75
2022-08-26T17:51:42.588Z,40.64
2022-08-26T17:56:45.341Z,40.67
2022-08-26T18:01:48.218Z,42.26
2022-08-26T18:06:52.398Z,44.16
2022-08-26T18:11:55.174Z,45.16
2022-08-26T18:16:57.940Z,46.57
2022-08-26T18:22:02.035Z,47.69
2022-08-26T18:27:05.129Z,48.17
2022-08-26T18:32:08.566Z,48.75
2022-08-26T18:37:14.313Z,49.17
2022-08-26T18:42:17.148Z,49.91
2022-08-26T18:47:20.029Z,50.32
2022-08-26T18:52:24.400Z,50.58
2022-08-26T18:57:27.413Z,51.42
2022-08-26T19:02:30.648Z,51.20
2022-08-26T19:07:39.395Z,51.07
2022-08-26T19:12:42.508Z,51.52
2022-08-26T19:17:46.415Z,51.14
2022-08-26T19:22:50.554Z,51.78
2022-08-26T19:27:53.309Z,51.96
2022-08-26T19:32:56.079Z,52.30
2022-08-26T19:38:01.520Z,52.10
2022-08-26T19:43:04.779Z,52.54
2022-08-26T19:48:08.569Z,52.78
2022-08-26T19:53:12.758Z,52.82
2022-08-26T19:58:15.504Z,53.15
2022-08-26T20:03:18.282Z,53.72
2022-08-26T20:08:22.860Z,54.04
2022-08-26T20:13:25.765Z,54.53
2022-08-26T20:18:45.841Z,54.21
2022-08-26T20:23:51.356Z,54.24
2022-08-26T20:28:54.172Z,55.00
2022-08-26T20:33:58.020Z,55.15
2022-08-26T20:39:02.222Z,55.57
2022-08-26T20:44:05.799Z,55.77
2022-08-26T20:49:08.899Z,56.07
2022-08-26T20:54:13.885Z,55.83
2022-08-26T20:59:17.265Z,56.17
2022-08-26T21:04:22.592Z,55.78
2022-08-26T21:09:27.254Z,56.40
2022-08-26T21:14:31.371Z,56.74
2022-08-26T21:19:34.192Z,55.95
2022-08-26T21:24:38.349Z,56.57
2022-08-26T21:29:41.106Z,55.95
2022-08-26T21:34:43.986Z,55.57
2022-08-26T21:39:48.193Z,55.75
2022-08-26T21:44:52.957Z,56.33
2022-08-26T21:49:55.926Z,56.43
2022-08-26T21:55:01.882Z,56.08
2022-08-26T22:00:07.128Z,55.95
2022-08-26T22:05:10.218Z,56.37
2022-08-26T22:10:14.541Z,56.35
2022-08-26T22:15:19.719Z,56.70
2022-08-26T22:20:23.801Z,56.29
2022-08-26T22:25:28.605Z,57.02
2022-08-26T22:30:31.448Z,57.51
2022-08-26T22:35:34.273Z,57.82
2022-08-26T22:40:43.485Z,57.78
2022-08-26T22:45:48.527Z,58.19
2022-08-26T22:50:57.127Z,58.62
2022-08-26T22:56:04.521Z,58.34
2022-08-26T23:01:08.398Z,59.19
2022-08-26T23:06:11.450Z,59.48
2022-08-26T23:11:16.081Z,59.49
2022-08-26T23:16:18.939Z,60.32
2022-08-26T23:21:21.753Z,59.78
2022-08-26T23:26:26.016Z,59.82
2022-08-26T23:31:28.893Z,61.11
2022-08-26T23:36:31.748Z,60.55
2022-08-26T23:41:39.293Z,60.51
2022-08-26T23:46:42.065Z,60.90
2022-08-26T23:52:02.515Z,61.93
2022-08-26T23:57:07.108Z,61.99
